sensor_id;sensor_type;location;lat;lon;timestamp;P1;durP1;ratioP1;P2;durP2;ratioP2
65328;SDS011;51941;52.210;5.158;2023-04-30T00:01:30;10.43;;;6.00;;
65328;SDS011;51941;52.210;5.158;2023-04-30T00:03:57;13.50;;;6.60;;
65328;SDS011;51941;52.210;5.158;2023-04-30T00:06:23;9.35;;;5.78;;
65328;SDS011;51941;52.210;5.158;2023-04-30T00:08:50;11.07;;;6.20;;
65328;SDS011;51941;52.210;5.158;2023-04-30T00:11:18;9.15;;;5.40;;
65328;SDS011;51941;52.210;5.158;2023-04-30T00:13:45;8.80;;;5.97;;
65328;SDS011;51941;52.210;5.158;2023-04-30T00:16:11;12.25;;;5.97;;
65328;SDS011;51941;52.210;5.158;2023-04-30T00:18:38;10.30;;;6.07;;
65328;SDS011;51941;52.210;5.158;2023-04-30T00:21:05;9.52;;;5.78;;
65328;SDS011;51941;52.210;5.158;2023-04-30T00:23:31;12.85;;;6.45;;
65328;SDS011;51941;52.210;5.158;2023-04-30T00:25:58;8.85;;;5.57;;
65328;SDS011;51941;52.210;5.158;2023-04-30T00:28:26;9.80;;;5.90;;
65328;SDS011;51941;52.210;5.158;2023-04-30T00:30:53;11.15;;;6.13;;
65328;SDS011;51941;52.210;5.158;2023-04-30T00:33:20;9.95;;;6.68;;
65328;SDS011;51941;52.210;5.158;2023-04-30T00:35:46;13.15;;;7.13;;
65328;SDS011;51941;52.210;5.158;2023-04-30T00:38:13;11.15;;;7.80;;
65328;SDS011;51941;52.210;5.158;2023-04-30T00:40:40;11.70;;;7.40;;
65328;SDS011;51941;52.210;5.158;2023-04-30T00:43:07;10.63;;;7.07;;
65328;SDS011;51941;52.210;5.158;2023-04-30T00:45:35;13.13;;;8.80;;
65328;SDS011;51941;52.210;5.158;2023-04-30T00:48:02;12.60;;;7.28;;
65328;SDS011;51941;52.210;5.158;2023-04-30T00:50:29;16.08;;;9.35;;
65328;SDS011;51941;52.210;5.158;2023-04-30T00:52:55;16.00;;;7.60;;
65328;SDS011;51941;52.210;5.158;2023-04-30T00:55:23;13.77;;;7.97;;
65328;SDS011;51941;52.210;5.158;2023-04-30T00:57:50;11.55;;;7.10;;
65328;SDS011;51941;52.210;5.158;2023-04-30T01:00:17;15.52;;;8.27;;
65328;SDS011;51941;52.210;5.158;2023-04-30T01:02:46;12.38;;;8.20;;
65328;SDS011;51941;52.210;5.158;2023-04-30T01:05:13;14.27;;;8.63;;
65328;SDS011;51941;52.210;5.158;2023-04-30T01:07:40;10.88;;;7.50;;
65328;SDS011;51941;52.210;5.158;2023-04-30T01:10:09;9.48;;;7.20;;
65328;SDS011;51941;52.210;5.158;2023-04-30T01:12:38;9.18;;;6.60;;
65328;SDS011;51941;52.210;5.158;2023-04-30T01:15:11;10.77;;;7.38;;
65328;SDS011;51941;52.210;5.158;2023-04-30T01:17:43;10.70;;;6.70;;
65328;SDS011;51941;52.210;5.158;2023-04-30T01:20:16;12.52;;;7.30;;
65328;SDS011;51941;52.210;5.158;2023-04-30T01:22:45;13.45;;;7.88;;
65328;SDS011;51941;52.210;5.158;2023-04-30T01:25:26;9.93;;;7.13;;
65328;SDS011;51941;52.210;5.158;2023-04-30T01:28:14;11.25;;;7.13;;
65328;SDS011;51941;52.210;5.158;2023-04-30T01:30:42;10.57;;;6.80;;
65328;SDS011;51941;52.210;5.158;2023-04-30T01:33:10;11.90;;;6.65;;
65328;SDS011;51941;52.210;5.158;2023-04-30T01:38:58;12.70;;;7.95;;
65328;SDS011;51941;52.210;5.158;2023-04-30T01:41:33;14.20;;;7.43;;
65328;SDS011;51941;52.210;5.158;2023-04-30T01:44:10;11.48;;;7.43;;
65328;SDS011;51941;52.210;5.158;2023-04-30T01:46:45;10.85;;;7.07;;
65328;SDS011;51941;52.210;5.158;2023-04-30T01:49:24;9.85;;;6.40;;
65328;SDS011;51941;52.210;5.158;2023-04-30T01:51:59;15.65;;;8.20;;
65328;SDS011;51941;52.210;5.158;2023-04-30T01:54:35;11.60;;;6.85;;
65328;SDS011;51941;52.210;5.158;2023-04-30T01:57:12;10.77;;;6.72;;
65328;SDS011;51941;52.210;5.158;2023-04-30T01:59:44;9.00;;;6.68;;
65328;SDS011;51941;52.210;5.158;2023-04-30T02:02:12;14.48;;;8.52;;
65328;SDS011;51941;52.210;5.158;2023-04-30T02:04:39;13.80;;;8.10;;
65328;SDS011;51941;52.210;5.158;2023-04-30T02:07:05;12.95;;;8.20;;
65328;SDS011;51941;52.210;5.158;2023-04-30T02:09:32;11.38;;;7.68;;
65328;SDS011;51941;52.210;5.158;2023-04-30T02:11:59;12.50;;;7.97;;
65328;SDS011;51941;52.210;5.158;2023-04-30T02:14:27;12.68;;;7.22;;
65328;SDS011;51941;52.210;5.158;2023-04-30T02:16:56;11.18;;;7.47;;
65328;SDS011;51941;52.210;5.158;2023-04-30T02:19:22;12.07;;;7.07;;
65328;SDS011;51941;52.210;5.158;2023-04-30T02:21:49;11.95;;;8.00;;
65328;SDS011;51941;52.210;5.158;2023-04-30T02:24:16;9.68;;;6.78;;
65328;SDS011;51941;52.210;5.158;2023-04-30T02:26:42;11.52;;;7.60;;
65328;SDS011;51941;52.210;5.158;2023-04-30T02:29:09;14.27;;;8.77;;
65328;SDS011;51941;52.210;5.158;2023-04-30T02:31:36;13.75;;;7.85;;
65328;SDS011;51941;52.210;5.158;2023-04-30T02:34:04;13.13;;;8.05;;
65328;SDS011;51941;52.210;5.158;2023-04-30T02:36:31;13.50;;;8.77;;
65328;SDS011;51941;52.210;5.158;2023-04-30T02:39:00;13.02;;;8.73;;
65328;SDS011;51941;52.210;5.158;2023-04-30T02:41:27;10.73;;;7.57;;
65328;SDS011;51941;52.210;5.158;2023-04-30T02:43:54;13.60;;;8.13;;
65328;SDS011;51941;52.210;5.158;2023-04-30T02:46:21;12.23;;;7.65;;
65328;SDS011;51941;52.210;5.158;2023-04-30T02:48:47;10.65;;;7.82;;
65328;SDS011;51941;52.210;5.158;2023-04-30T02:51:16;13.38;;;8.70;;
65328;SDS011;51941;52.210;5.158;2023-04-30T02:53:42;13.38;;;9.07;;
65328;SDS011;51941;52.210;5.158;2023-04-30T02:56:09;16.05;;;9.18;;
65328;SDS011;51941;52.210;5.158;2023-04-30T02:58:36;12.13;;;9.02;;
65328;SDS011;51941;52.210;5.158;2023-04-30T03:01:02;16.13;;;9.23;;
65328;SDS011;51941;52.210;5.158;2023-04-30T03:03:29;13.63;;;8.63;;
65328;SDS011;51941;52.210;5.158;2023-04-30T03:05:57;12.75;;;8.50;;
65328;SDS011;51941;52.210;5.158;2023-04-30T03:08:25;11.30;;;7.45;;
65328;SDS011;51941;52.210;5.158;2023-04-30T03:10:52;12.73;;;7.88;;
65328;SDS011;51941;52.210;5.158;2023-04-30T03:13:18;11.05;;;7.75;;
65328;SDS011;51941;52.210;5.158;2023-04-30T03:15:55;11.68;;;7.75;;
65328;SDS011;51941;52.210;5.158;2023-04-30T03:18:22;14.35;;;7.93;;
65328;SDS011;51941;52.210;5.158;2023-04-30T03:20:49;10.60;;;7.30;;
65328;SDS011;51941;52.210;5.158;2023-04-30T03:23:15;9.70;;;6.80;;
65328;SDS011;51941;52.210;5.158;2023-04-30T03:25:43;10.02;;;6.70;;
65328;SDS011;51941;52.210;5.158;2023-04-30T03:28:10;7.78;;;6.43;;
65328;SDS011;51941;52.210;5.158;2023-04-30T03:30:37;9.32;;;6.35;;
65328;SDS011;51941;52.210;5.158;2023-04-30T03:33:03;10.13;;;6.85;;
65328;SDS011;51941;52.210;5.158;2023-04-30T03:35:30;13.68;;;8.20;;
65328;SDS011;51941;52.210;5.158;2023-04-30T03:37:58;12.02;;;7.90;;
65328;SDS011;51941;52.210;5.158;2023-04-30T03:40:25;11.32;;;7.75;;
65328;SDS011;51941;52.210;5.158;2023-04-30T03:42:53;12.50;;;7.80;;
65328;SDS011;51941;52.210;5.158;2023-04-30T03:45:20;11.73;;;7.13;;
65328;SDS011;51941;52.210;5.158;2023-04-30T03:47:47;7.25;;;6.03;;
65328;SDS011;51941;52.210;5.158;2023-04-30T03:50:14;11.13;;;7.47;;
65328;SDS011;51941;52.210;5.158;2023-04-30T03:52:43;10.63;;;8.23;;
65328;SDS011;51941;52.210;5.158;2023-04-30T03:55:11;11.20;;;7.43;;
65328;SDS011;51941;52.210;5.158;2023-04-30T03:57:38;12.52;;;8.02;;
65328;SDS011;51941;52.210;5.158;2023-04-30T04:00:08;9.00;;;7.13;;
65328;SDS011;51941;52.210;5.158;2023-04-30T04:02:40;10.07;;;7.20;;
65328;SDS011;51941;52.210;5.158;2023-04-30T04:05:09;13.23;;;7.95;;
65328;SDS011;51941;52.210;5.158;2023-04-30T04:07:36;14.55;;;7.68;;
65328;SDS011;51941;52.210;5.158;2023-04-30T04:10:03;9.07;;;6.80;;
65328;SDS011;51941;52.210;5.158;2023-04-30T04:12:31;10.10;;;7.22;;
65328;SDS011;51941;52.210;5.158;2023-04-30T04:14:57;11.00;;;7.45;;
65328;SDS011;51941;52.210;5.158;2023-04-30T04:17:25;12.45;;;7.65;;
65328;SDS011;51941;52.210;5.158;2023-04-30T04:19:52;12.73;;;7.50;;
65328;SDS011;51941;52.210;5.158;2023-04-30T04:22:19;9.43;;;6.28;;
65328;SDS011;51941;52.210;5.158;2023-04-30T04:24:46;10.38;;;6.00;;
65328;SDS011;51941;52.210;5.158;2023-04-30T04:27:17;10.20;;;7.00;;
65328;SDS011;51941;52.210;5.158;2023-04-30T04:29:44;11.95;;;6.90;;
65328;SDS011;51941;52.210;5.158;2023-04-30T04:32:12;10.82;;;6.88;;
65328;SDS011;51941;52.210;5.158;2023-04-30T04:34:41;8.55;;;6.55;;
65328;SDS011;51941;52.210;5.158;2023-04-30T04:37:10;8.32;;;5.95;;
65328;SDS011;51941;52.210;5.158;2023-04-30T04:39:36;7.93;;;5.57;;
65328;SDS011;51941;52.210;5.158;2023-04-30T04:42:03;8.82;;;5.75;;
65328;SDS011;51941;52.210;5.158;2023-04-30T04:44:30;8.18;;;5.70;;
65328;SDS011;51941;52.210;5.158;2023-04-30T04:46:57;7.00;;;5.55;;
65328;SDS011;51941;52.210;5.158;2023-04-30T04:49:24;9.15;;;5.78;;
65328;SDS011;51941;52.210;5.158;2023-04-30T04:51:52;11.02;;;5.78;;
65328;SDS011;51941;52.210;5.158;2023-04-30T04:54:19;7.30;;;5.90;;
65328;SDS011;51941;52.210;5.158;2023-04-30T04:56:48;9.23;;;6.00;;
65328;SDS011;51941;52.210;5.158;2023-04-30T04:59:15;7.45;;;5.68;;
65328;SDS011;51941;52.210;5.158;2023-04-30T05:01:44;8.52;;;6.38;;
65328;SDS011;51941;52.210;5.158;2023-04-30T05:04:10;10.18;;;5.90;;
65328;SDS011;51941;52.210;5.158;2023-04-30T05:06:38;9.57;;;5.93;;
65328;SDS011;51941;52.210;5.158;2023-04-30T05:09:06;9.07;;;5.88;;
65328;SDS011;51941;52.210;5.158;2023-04-30T05:11:34;7.13;;;5.00;;
65328;SDS011;51941;52.210;5.158;2023-04-30T05:14:00;10.35;;;5.70;;
65328;SDS011;51941;52.210;5.158;2023-04-30T05:16:27;6.53;;;4.82;;
65328;SDS011;51941;52.210;5.158;2023-04-30T05:18:54;6.07;;;4.82;;
65328;SDS011;51941;52.210;5.158;2023-04-30T05:21:20;9.85;;;5.22;;
65328;SDS011;51941;52.210;5.158;2023-04-30T05:23:47;6.78;;;5.15;;
65328;SDS011;51941;52.210;5.158;2023-04-30T05:26:15;8.73;;;5.70;;
65328;SDS011;51941;52.210;5.158;2023-04-30T05:28:42;7.93;;;5.40;;
65328;SDS011;51941;52.210;5.158;2023-04-30T05:31:09;7.32;;;5.07;;
65328;SDS011;51941;52.210;5.158;2023-04-30T05:33:36;5.95;;;4.93;;
65328;SDS011;51941;52.210;5.158;2023-04-30T05:36:02;7.80;;;5.00;;
65328;SDS011;51941;52.210;5.158;2023-04-30T05:38:29;5.70;;;4.10;;
65328;SDS011;51941;52.210;5.158;2023-04-30T05:40:56;6.35;;;4.15;;
65328;SDS011;51941;52.210;5.158;2023-04-30T05:43:24;7.53;;;4.35;;
65328;SDS011;51941;52.210;5.158;2023-04-30T05:45:51;8.25;;;5.20;;
65328;SDS011;51941;52.210;5.158;2023-04-30T05:48:17;8.30;;;5.20;;
65328;SDS011;51941;52.210;5.158;2023-04-30T05:50:44;7.65;;;5.80;;
65328;SDS011;51941;52.210;5.158;2023-04-30T05:53:11;8.73;;;4.93;;
65328;SDS011;51941;52.210;5.158;2023-04-30T05:55:38;9.00;;;5.38;;
65328;SDS011;51941;52.210;5.158;2023-04-30T05:58:05;11.70;;;5.03;;
65328;SDS011;51941;52.210;5.158;2023-04-30T06:00:33;12.15;;;5.90;;
65328;SDS011;51941;52.210;5.158;2023-04-30T06:03:00;11.18;;;5.97;;
65328;SDS011;51941;52.210;5.158;2023-04-30T06:05:26;9.88;;;6.13;;
65328;SDS011;51941;52.210;5.158;2023-04-30T06:07:53;9.60;;;4.95;;
65328;SDS011;51941;52.210;5.158;2023-04-30T06:10:20;6.47;;;5.15;;
65328;SDS011;51941;52.210;5.158;2023-04-30T06:12:46;7.18;;;5.30;;
65328;SDS011;51941;52.210;5.158;2023-04-30T06:15:13;7.40;;;5.18;;
65328;SDS011;51941;52.210;5.158;2023-04-30T06:17:41;8.80;;;4.78;;
65328;SDS011;51941;52.210;5.158;2023-04-30T06:20:08;6.50;;;4.32;;
65328;SDS011;51941;52.210;5.158;2023-04-30T06:22:35;6.88;;;4.20;;
65328;SDS011;51941;52.210;5.158;2023-04-30T06:25:02;6.40;;;4.35;;
65328;SDS011;51941;52.210;5.158;2023-04-30T06:27:30;5.57;;;3.65;;
65328;SDS011;51941;52.210;5.158;2023-04-30T06:29:57;5.75;;;3.65;;
65328;SDS011;51941;52.210;5.158;2023-04-30T06:32:25;5.90;;;3.22;;
65328;SDS011;51941;52.210;5.158;2023-04-30T06:34:55;8.05;;;3.90;;
65328;SDS011;51941;52.210;5.158;2023-04-30T06:37:22;4.68;;;3.22;;
65328;SDS011;51941;52.210;5.158;2023-04-30T06:39:49;5.75;;;2.50;;
65328;SDS011;51941;52.210;5.158;2023-04-30T06:42:15;5.97;;;3.05;;
65328;SDS011;51941;52.210;5.158;2023-04-30T06:44:42;5.95;;;3.60;;
65328;SDS011;51941;52.210;5.158;2023-04-30T06:47:09;5.28;;;3.00;;
65328;SDS011;51941;52.210;5.158;2023-04-30T06:49:36;3.53;;;2.80;;
65328;SDS011;51941;52.210;5.158;2023-04-30T06:52:04;3.88;;;2.72;;
65328;SDS011;51941;52.210;5.158;2023-04-30T06:54:31;3.70;;;2.55;;
65328;SDS011;51941;52.210;5.158;2023-04-30T06:56:58;4.28;;;2.40;;
65328;SDS011;51941;52.210;5.158;2023-04-30T06:59:26;4.47;;;2.55;;
65328;SDS011;51941;52.210;5.158;2023-04-30T07:01:52;4.70;;;2.50;;
65328;SDS011;51941;52.210;5.158;2023-04-30T07:04:19;5.55;;;2.67;;
65328;SDS011;51941;52.210;5.158;2023-04-30T07:06:45;4.50;;;2.40;;
65328;SDS011;51941;52.210;5.158;2023-04-30T07:09:14;4.00;;;2.42;;
65328;SDS011;51941;52.210;5.158;2023-04-30T07:11:40;7.18;;;3.22;;
65328;SDS011;51941;52.210;5.158;2023-04-30T07:14:08;5.63;;;2.42;;
65328;SDS011;51941;52.210;5.158;2023-04-30T07:16:35;4.10;;;2.03;;
65328;SDS011;51941;52.210;5.158;2023-04-30T07:19:01;4.60;;;2.45;;
65328;SDS011;51941;52.210;5.158;2023-04-30T07:21:28;5.72;;;2.58;;
65328;SDS011;51941;52.210;5.158;2023-04-30T07:23:57;4.18;;;2.40;;
65328;SDS011;51941;52.210;5.158;2023-04-30T07:26:25;5.47;;;2.70;;
65328;SDS011;51941;52.210;5.158;2023-04-30T07:28:51;6.40;;;2.90;;
65328;SDS011;51941;52.210;5.158;2023-04-30T07:31:18;5.32;;;2.90;;
65328;SDS011;51941;52.210;5.158;2023-04-30T07:33:45;4.25;;;2.92;;
65328;SDS011;51941;52.210;5.158;2023-04-30T07:36:13;8.07;;;2.50;;
65328;SDS011;51941;52.210;5.158;2023-04-30T07:38:40;6.95;;;3.00;;
65328;SDS011;51941;52.210;5.158;2023-04-30T07:41:07;4.32;;;2.22;;
65328;SDS011;51941;52.210;5.158;2023-04-30T07:43:36;4.45;;;2.95;;
65328;SDS011;51941;52.210;5.158;2023-04-30T07:46:03;4.30;;;2.40;;
65328;SDS011;51941;52.210;5.158;2023-04-30T07:48:29;3.72;;;2.40;;
65328;SDS011;51941;52.210;5.158;2023-04-30T07:50:56;4.95;;;2.58;;
65328;SDS011;51941;52.210;5.158;2023-04-30T07:53:23;4.97;;;2.75;;
65328;SDS011;51941;52.210;5.158;2023-04-30T07:55:50;3.92;;;2.58;;
65328;SDS011;51941;52.210;5.158;2023-04-30T07:58:16;4.55;;;2.33;;
65328;SDS011;51941;52.210;5.158;2023-04-30T08:00:44;3.58;;;2.38;;
65328;SDS011;51941;52.210;5.158;2023-04-30T08:03:11;4.47;;;2.63;;
65328;SDS011;51941;52.210;5.158;2023-04-30T08:05:38;3.75;;;2.42;;
65328;SDS011;51941;52.210;5.158;2023-04-30T08:08:05;3.25;;;1.85;;
65328;SDS011;51941;52.210;5.158;2023-04-30T08:10:32;5.40;;;2.92;;
65328;SDS011;51941;52.210;5.158;2023-04-30T08:13:01;5.43;;;2.70;;
65328;SDS011;51941;52.210;5.158;2023-04-30T08:15:29;8.05;;;2.60;;
65328;SDS011;51941;52.210;5.158;2023-04-30T08:17:57;3.95;;;2.30;;
65328;SDS011;51941;52.210;5.158;2023-04-30T08:20:24;4.35;;;2.00;;
65328;SDS011;51941;52.210;5.158;2023-04-30T08:22:51;4.65;;;2.10;;
65328;SDS011;51941;52.210;5.158;2023-04-30T08:25:17;3.45;;;1.90;;
65328;SDS011;51941;52.210;5.158;2023-04-30T08:27:44;3.72;;;2.38;;
65328;SDS011;51941;52.210;5.158;2023-04-30T08:30:11;3.15;;;2.10;;
65328;SDS011;51941;52.210;5.158;2023-04-30T08:32:38;3.33;;;1.92;;
65328;SDS011;51941;52.210;5.158;2023-04-30T08:35:07;4.07;;;1.85;;
65328;SDS011;51941;52.210;5.158;2023-04-30T08:40:01;3.97;;;1.98;;
65328;SDS011;51941;52.210;5.158;2023-04-30T08:42:30;3.47;;;2.22;;
65328;SDS011;51941;52.210;5.158;2023-04-30T08:45:01;3.60;;;1.88;;
65328;SDS011;51941;52.210;5.158;2023-04-30T08:47:29;2.05;;;1.73;;
65328;SDS011;51941;52.210;5.158;2023-04-30T08:49:56;4.40;;;2.00;;
65328;SDS011;51941;52.210;5.158;2023-04-30T08:52:24;3.42;;;2.10;;
65328;SDS011;51941;52.210;5.158;2023-04-30T08:54:53;5.75;;;2.58;;
65328;SDS011;51941;52.210;5.158;2023-04-30T08:57:22;2.97;;;2.00;;
65328;SDS011;51941;52.210;5.158;2023-04-30T08:59:49;3.60;;;2.08;;
65328;SDS011;51941;52.210;5.158;2023-04-30T09:02:16;2.30;;;1.90;;
65328;SDS011;51941;52.210;5.158;2023-04-30T09:04:42;2.72;;;2.28;;
65328;SDS011;51941;52.210;5.158;2023-04-30T09:07:10;3.15;;;1.92;;
65328;SDS011;51941;52.210;5.158;2023-04-30T09:09:40;5.70;;;2.38;;
65328;SDS011;51941;52.210;5.158;2023-04-30T09:12:10;5.78;;;2.70;;
65328;SDS011;51941;52.210;5.158;2023-04-30T09:14:38;3.58;;;2.50;;
65328;SDS011;51941;52.210;5.158;2023-04-30T09:17:05;3.25;;;2.45;;
65328;SDS011;51941;52.210;5.158;2023-04-30T09:19:33;3.85;;;2.40;;
65328;SDS011;51941;52.210;5.158;2023-04-30T09:22:11;7.32;;;2.65;;
65328;SDS011;51941;52.210;5.158;2023-04-30T09:24:46;4.43;;;2.20;;
65328;SDS011;51941;52.210;5.158;2023-04-30T09:27:15;4.53;;;2.97;;
65328;SDS011;51941;52.210;5.158;2023-04-30T09:29:42;5.10;;;2.53;;
65328;SDS011;51941;52.210;5.158;2023-04-30T09:32:10;4.68;;;2.30;;
65328;SDS011;51941;52.210;5.158;2023-04-30T09:34:37;4.78;;;2.72;;
65328;SDS011;51941;52.210;5.158;2023-04-30T09:37:05;4.47;;;2.97;;
65328;SDS011;51941;52.210;5.158;2023-04-30T09:39:32;3.78;;;2.38;;
65328;SDS011;51941;52.210;5.158;2023-04-30T09:42:09;6.57;;;2.85;;
65328;SDS011;51941;52.210;5.158;2023-04-30T09:44:36;4.35;;;2.65;;
65328;SDS011;51941;52.210;5.158;2023-04-30T09:47:04;8.40;;;3.72;;
65328;SDS011;51941;52.210;5.158;2023-04-30T09:49:36;6.30;;;2.92;;
65328;SDS011;51941;52.210;5.158;2023-04-30T09:52:03;3.60;;;2.63;;
65328;SDS011;51941;52.210;5.158;2023-04-30T09:54:31;4.30;;;2.40;;
65328;SDS011;51941;52.210;5.158;2023-04-30T09:56:59;6.38;;;2.85;;
65328;SDS011;51941;52.210;5.158;2023-04-30T09:59:29;5.32;;;2.80;;
65328;SDS011;51941;52.210;5.158;2023-04-30T10:01:57;3.97;;;2.42;;
65328;SDS011;51941;52.210;5.158;2023-04-30T10:04:25;6.35;;;3.00;;
65328;SDS011;51941;52.210;5.158;2023-04-30T10:06:54;3.13;;;2.28;;
65328;SDS011;51941;52.210;5.158;2023-04-30T10:09:24;4.78;;;2.63;;
65328;SDS011;51941;52.210;5.158;2023-04-30T10:11:55;4.22;;;2.50;;
65328;SDS011;51941;52.210;5.158;2023-04-30T10:14:23;4.25;;;2.90;;
65328;SDS011;51941;52.210;5.158;2023-04-30T10:16:56;3.53;;;2.50;;
65328;SDS011;51941;52.210;5.158;2023-04-30T10:19:29;6.00;;;2.92;;
65328;SDS011;51941;52.210;5.158;2023-04-30T10:21:59;4.80;;;2.35;;
65328;SDS011;51941;52.210;5.158;2023-04-30T10:24:27;4.55;;;2.30;;
65328;SDS011;51941;52.210;5.158;2023-04-30T10:26:54;3.55;;;2.40;;
65328;SDS011;51941;52.210;5.158;2023-04-30T10:29:21;4.90;;;2.60;;
65328;SDS011;51941;52.210;5.158;2023-04-30T10:31:48;6.63;;;3.35;;
65328;SDS011;51941;52.210;5.158;2023-04-30T10:34:20;4.40;;;3.25;;
65328;SDS011;51941;52.210;5.158;2023-04-30T10:36:55;3.50;;;2.90;;
65328;SDS011;51941;52.210;5.158;2023-04-30T10:39:24;4.25;;;3.10;;
65328;SDS011;51941;52.210;5.158;2023-04-30T10:41:59;6.70;;;3.00;;
65328;SDS011;51941;52.210;5.158;2023-04-30T10:44:28;5.10;;;2.38;;
65328;SDS011;51941;52.210;5.158;2023-04-30T10:46:57;5.50;;;2.17;;
65328;SDS011;51941;52.210;5.158;2023-04-30T10:49:27;5.00;;;2.15;;
65328;SDS011;51941;52.210;5.158;2023-04-30T10:51:54;4.90;;;2.10;;
65328;SDS011;51941;52.210;5.158;2023-04-30T10:54:25;7.00;;;2.70;;
65328;SDS011;51941;52.210;5.158;2023-04-30T10:56:52;2.92;;;2.10;;
65328;SDS011;51941;52.210;5.158;2023-04-30T10:59:22;3.97;;;2.60;;
65328;SDS011;51941;52.210;5.158;2023-04-30T11:01:56;4.03;;;2.25;;
65328;SDS011;51941;52.210;5.158;2023-04-30T11:04:24;6.93;;;2.70;;
65328;SDS011;51941;52.210;5.158;2023-04-30T11:07:01;3.72;;;2.42;;
65328;SDS011;51941;52.210;5.158;2023-04-30T11:09:34;4.47;;;2.58;;
65328;SDS011;51941;52.210;5.158;2023-04-30T11:12:02;4.03;;;2.22;;
65328;SDS011;51941;52.210;5.158;2023-04-30T11:14:31;2.83;;;1.90;;
65328;SDS011;51941;52.210;5.158;2023-04-30T11:16:58;2.85;;;1.75;;
65328;SDS011;51941;52.210;5.158;2023-04-30T11:19:26;3.38;;;2.00;;
65328;SDS011;51941;52.210;5.158;2023-04-30T11:24:49;4.22;;;2.42;;
65328;SDS011;51941;52.210;5.158;2023-04-30T11:27:19;3.70;;;2.45;;
65328;SDS011;51941;52.210;5.158;2023-04-30T11:29:47;4.40;;;2.35;;
65328;SDS011;51941;52.210;5.158;2023-04-30T11:32:15;5.18;;;2.47;;
65328;SDS011;51941;52.210;5.158;2023-04-30T11:34:42;5.65;;;2.90;;
65328;SDS011;51941;52.210;5.158;2023-04-30T11:37:11;4.68;;;2.28;;
65328;SDS011;51941;52.210;5.158;2023-04-30T11:39:40;4.43;;;2.47;;
65328;SDS011;51941;52.210;5.158;2023-04-30T11:42:08;2.70;;;2.22;;
65328;SDS011;51941;52.210;5.158;2023-04-30T11:44:35;4.57;;;2.60;;
65328;SDS011;51941;52.210;5.158;2023-04-30T11:47:02;7.07;;;2.72;;
65328;SDS011;51941;52.210;5.158;2023-04-30T11:49:30;4.80;;;1.88;;
65328;SDS011;51941;52.210;5.158;2023-04-30T11:51:57;3.38;;;1.95;;
65328;SDS011;51941;52.210;5.158;2023-04-30T11:54:24;4.20;;;2.30;;
65328;SDS011;51941;52.210;5.158;2023-04-30T11:56:52;4.13;;;2.17;;
65328;SDS011;51941;52.210;5.158;2023-04-30T11:59:25;2.50;;;1.83;;
65328;SDS011;51941;52.210;5.158;2023-04-30T12:01:51;5.75;;;2.85;;
65328;SDS011;51941;52.210;5.158;2023-04-30T12:04:19;4.20;;;2.20;;
65328;SDS011;51941;52.210;5.158;2023-04-30T12:06:45;5.05;;;2.80;;
65328;SDS011;51941;52.210;5.158;2023-04-30T12:09:12;9.20;;;2.03;;
65328;SDS011;51941;52.210;5.158;2023-04-30T12:11:39;3.05;;;2.15;;
65328;SDS011;51941;52.210;5.158;2023-04-30T12:14:08;2.80;;;2.40;;
65328;SDS011;51941;52.210;5.158;2023-04-30T12:16:40;4.95;;;2.70;;
65328;SDS011;51941;52.210;5.158;2023-04-30T12:19:09;2.80;;;1.98;;
65328;SDS011;51941;52.210;5.158;2023-04-30T12:21:36;4.82;;;2.30;;
65328;SDS011;51941;52.210;5.158;2023-04-30T12:24:04;4.13;;;2.50;;
65328;SDS011;51941;52.210;5.158;2023-04-30T12:26:34;2.92;;;2.10;;
65328;SDS011;51941;52.210;5.158;2023-04-30T12:29:02;4.93;;;2.28;;
65328;SDS011;51941;52.210;5.158;2023-04-30T12:31:31;3.45;;;2.05;;
65328;SDS011;51941;52.210;5.158;2023-04-30T12:34:02;2.50;;;1.87;;
65328;SDS011;51941;52.210;5.158;2023-04-30T12:36:30;2.85;;;2.03;;
65328;SDS011;51941;52.210;5.158;2023-04-30T12:39:07;4.03;;;1.73;;
65328;SDS011;51941;52.210;5.158;2023-04-30T12:41:35;3.20;;;2.20;;
65328;SDS011;51941;52.210;5.158;2023-04-30T12:44:18;2.35;;;1.65;;
65328;SDS011;51941;52.210;5.158;2023-04-30T12:46:53;3.30;;;2.05;;
65328;SDS011;51941;52.210;5.158;2023-04-30T12:49:25;4.32;;;2.20;;
65328;SDS011;51941;52.210;5.158;2023-04-30T12:51:56;2.33;;;1.98;;
65328;SDS011;51941;52.210;5.158;2023-04-30T12:54:25;4.43;;;2.20;;
65328;SDS011;51941;52.210;5.158;2023-04-30T12:56:59;3.20;;;1.63;;
65328;SDS011;51941;52.210;5.158;2023-04-30T12:59:27;2.45;;;1.60;;
65328;SDS011;51941;52.210;5.158;2023-04-30T13:01:56;2.17;;;1.77;;
65328;SDS011;51941;52.210;5.158;2023-04-30T13:04:31;3.95;;;1.75;;
65328;SDS011;51941;52.210;5.158;2023-04-30T13:06:58;5.68;;;2.05;;
65328;SDS011;51941;52.210;5.158;2023-04-30T13:09:24;2.80;;;1.52;;
65328;SDS011;51941;52.210;5.158;2023-04-30T13:11:51;2.65;;;1.40;;
65328;SDS011;51941;52.210;5.158;2023-04-30T13:14:18;4.30;;;1.58;;
65328;SDS011;51941;52.210;5.158;2023-04-30T13:16:45;3.33;;;1.63;;
65328;SDS011;51941;52.210;5.158;2023-04-30T13:19:13;3.38;;;1.60;;
65328;SDS011;51941;52.210;5.158;2023-04-30T13:21:40;2.35;;;1.30;;
65328;SDS011;51941;52.210;5.158;2023-04-30T13:24:06;2.60;;;1.20;;
65328;SDS011;51941;52.210;5.158;2023-04-30T13:26:33;3.00;;;1.20;;
65328;SDS011;51941;52.210;5.158;2023-04-30T13:29:00;2.63;;;1.50;;
65328;SDS011;51941;52.210;5.158;2023-04-30T13:31:28;2.53;;;1.30;;
65328;SDS011;51941;52.210;5.158;2023-04-30T13:33:55;2.08;;;1.05;;
65328;SDS011;51941;52.210;5.158;2023-04-30T13:36:23;1.67;;;1.25;;
65328;SDS011;51941;52.210;5.158;2023-04-30T13:38:49;2.60;;;1.30;;
65328;SDS011;51941;52.210;5.158;2023-04-30T13:41:16;1.90;;;1.20;;
65328;SDS011;51941;52.210;5.158;2023-04-30T13:43:44;1.88;;;1.13;;
65328;SDS011;51941;52.210;5.158;2023-04-30T13:46:11;5.65;;;1.60;;
65328;SDS011;51941;52.210;5.158;2023-04-30T13:48:39;2.55;;;1.20;;
65328;SDS011;51941;52.210;5.158;2023-04-30T13:51:06;2.53;;;1.20;;
65328;SDS011;51941;52.210;5.158;2023-04-30T13:53:35;1.65;;;1.00;;
65328;SDS011;51941;52.210;5.158;2023-04-30T13:56:01;1.30;;;1.05;;
65328;SDS011;51941;52.210;5.158;2023-04-30T13:58:28;2.40;;;1.20;;
65328;SDS011;51941;52.210;5.158;2023-04-30T14:00:55;3.92;;;1.63;;
65328;SDS011;51941;52.210;5.158;2023-04-30T14:03:21;6.20;;;2.83;;
65328;SDS011;51941;52.210;5.158;2023-04-30T14:05:48;4.65;;;1.40;;
65328;SDS011;51941;52.210;5.158;2023-04-30T14:08:16;1.95;;;1.30;;
65328;SDS011;51941;52.210;5.158;2023-04-30T14:10:44;1.88;;;1.40;;
65328;SDS011;51941;52.210;5.158;2023-04-30T14:13:11;2.92;;;1.20;;
65328;SDS011;51941;52.210;5.158;2023-04-30T14:15:38;1.77;;;1.30;;
65328;SDS011;51941;52.210;5.158;2023-04-30T14:18:04;3.53;;;1.40;;
65328;SDS011;51941;52.210;5.158;2023-04-30T14:20:31;2.20;;;1.38;;
65328;SDS011;51941;52.210;5.158;2023-04-30T14:22:58;3.88;;;1.38;;
65328;SDS011;51941;52.210;5.158;2023-04-30T14:25:24;2.03;;;1.27;;
65328;SDS011;51941;52.210;5.158;2023-04-30T14:27:53;1.20;;;1.10;;
65328;SDS011;51941;52.210;5.158;2023-04-30T14:30:19;3.10;;;1.00;;
65328;SDS011;51941;52.210;5.158;2023-04-30T14:32:46;1.80;;;1.00;;
65328;SDS011;51941;52.210;5.158;2023-04-30T14:35:13;1.33;;;1.00;;
65328;SDS011;51941;52.210;5.158;2023-04-30T14:37:39;0.80;;;0.70;;
65328;SDS011;51941;52.210;5.158;2023-04-30T14:40:06;1.75;;;0.70;;
65328;SDS011;51941;52.210;5.158;2023-04-30T14:42:34;1.00;;;0.60;;
65328;SDS011;51941;52.210;5.158;2023-04-30T14:45:02;2.38;;;1.10;;
65328;SDS011;51941;52.210;5.158;2023-04-30T14:47:29;2.20;;;0.85;;
65328;SDS011;51941;52.210;5.158;2023-04-30T14:49:55;1.40;;;1.05;;
65328;SDS011;51941;52.210;5.158;2023-04-30T14:52:23;1.35;;;1.20;;
65328;SDS011;51941;52.210;5.158;2023-04-30T14:54:49;1.38;;;0.88;;
65328;SDS011;51941;52.210;5.158;2023-04-30T14:57:16;4.10;;;1.30;;